sensor_id;sensor_type;location;lat;lon;timestamp;pressure;altitude;pressure_sealevel;temperature;humidity
51287;BME280;37364;46.974;18.916;2023-05-12T00:01:37;152976.22;;;10.43;100.00
51287;BME280;37364;46.974;18.916;2023-05-12T00:04:08;152955.47;;;10.35;100.00
51287;BME280;37364;46.974;18.916;2023-05-12T00:06:38;152949.03;;;10.32;100.00
51287;BME280;37364;46.974;18.916;2023-05-12T00:09:11;152943.84;;;10.30;100.00
51287;BME280;37364;46.974;18.916;2023-05-12T00:11:41;152917.91;;;10.20;100.00
51287;BME280;37364;46.974;18.916;2023-05-12T00:14:14;152921.81;;;10.21;100.00
51287;BME280;37364;46.974;18.916;2023-05-12T00:16:44;152938.63;;;10.28;100.00
51287;BME280;37364;46.974;18.916;2023-05-12T00:19:18;152929.56;;;10.24;100.00
51287;BME280;37364;46.974;18.916;2023-05-12T00:21:48;152934.72;;;10.26;100.00
51287;BME280;37364;46.974;18.916;2023-05-12T00:24:21;152934.72;;;10.26;100.00
51287;BME280;37364;46.974;18.916;2023-05-12T00:26:52;152952.91;;;10.34;100.00
51287;BME280;37364;46.974;18.916;2023-05-12T00:29:22;152919.19;;;10.20;100.00
51287;BME280;37364;46.974;18.916;2023-05-12T00:31:54;152930.84;;;10.25;100.00
51287;BME280;37364;46.974;18.916;2023-05-12T00:34:26;152925.66;;;10.23;100.00
51287;BME280;37364;46.974;18.916;2023-05-12T00:36:56;152925.66;;;10.23;100.00
51287;BME280;37364;46.974;18.916;2023-05-12T00:39:29;152946.47;;;10.31;100.00
51287;BME280;37364;46.974;18.916;2023-05-12T00:41:59;152928.28;;;10.24;100.00
51287;BME280;37364;46.974;18.916;2023-05-12T00:44:30;152925.66;;;10.23;100.00
51287;BME280;37364;46.974;18.916;2023-05-12T00:47:00;152933.44;;;10.26;100.00
51287;BME280;37364;46.974;18.916;2023-05-12T00:49:33;152942.50;;;10.29;100.00
51287;BME280;37364;46.974;18.916;2023-05-12T00:52:05;152952.91;;;10.34;100.00
51287;BME280;37364;46.974;18.916;2023-05-12T00:54:39;152933.44;;;10.26;100.00
51287;BME280;37364;46.974;18.916;2023-05-12T00:57:11;152929.56;;;10.24;100.00
51287;BME280;37364;46.974;18.916;2023-05-12T00:59:41;152929.56;;;10.24;100.00
51287;BME280;37364;46.974;18.916;2023-05-12T01:02:13;152923.09;;;10.22;100.00
51287;BME280;37364;46.974;18.916;2023-05-12T01:04:44;152930.84;;;10.25;100.00
51287;BME280;37364;46.974;18.916;2023-05-12T01:07:20;152937.34;;;10.27;100.00
51287;BME280;37364;46.974;18.916;2023-05-12T01:09:55;152939.91;;;10.28;100.00
51287;BME280;37364;46.974;18.916;2023-05-12T01:12:33;152956.81;;;10.35;100.00
51287;BME280;37364;46.974;18.916;2023-05-12T01:15:04;152938.63;;;10.28;100.00
51287;BME280;37364;46.974;18.916;2023-05-12T01:17:36;152929.56;;;10.24;100.00
51287;BME280;37364;46.974;18.916;2023-05-12T01:20:11;152961.97;;;10.37;100.00
51287;BME280;37364;46.974;18.916;2023-05-12T01:22:43;152939.91;;;10.28;100.00
51287;BME280;37364;46.974;18.916;2023-05-12T01:25:18;152929.56;;;10.24;100.00
51287;BME280;37364;46.974;18.916;2023-05-12T01:27:54;152939.91;;;10.28;100.00
51287;BME280;37364;46.974;18.916;2023-05-12T01:30:25;152934.72;;;10.26;100.00
51287;BME280;37364;46.974;18.916;2023-05-12T01:32:57;152934.72;;;10.26;100.00
51287;BME280;37364;46.974;18.916;2023-05-12T01:35:28;152950.31;;;10.33;100.00
51287;BME280;37364;46.974;18.916;2023-05-12T01:38:00;152943.84;;;10.30;100.00
51287;BME280;37364;46.974;18.916;2023-05-12T01:40:34;152941.22;;;10.29;100.00
51287;BME280;37364;46.974;18.916;2023-05-12T01:43:08;152929.56;;;10.24;100.00
51287;BME280;37364;46.974;18.916;2023-05-12T01:45:38;152947.75;;;10.32;100.00
51287;BME280;37364;46.974;18.916;2023-05-12T01:48:10;152938.63;;;10.28;100.00
51287;BME280;37364;46.974;18.916;2023-05-12T01:50:41;152919.19;;;10.20;100.00
51287;BME280;37364;46.974;18.916;2023-05-12T01:53:19;152924.38;;;10.22;100.00
51287;BME280;37364;46.974;18.916;2023-05-12T01:55:52;152929.56;;;10.24;100.00
51287;BME280;37364;46.974;18.916;2023-05-12T01:58:26;152923.09;;;10.22;100.00
51287;BME280;37364;46.974;18.916;2023-05-12T02:00:58;152939.91;;;10.28;100.00
51287;BME280;37364;46.974;18.916;2023-05-12T02:03:29;152917.91;;;10.20;100.00
51287;BME280;37364;46.974;18.916;2023-05-12T02:05:59;152924.38;;;10.22;100.00
51287;BME280;37364;46.974;18.916;2023-05-12T02:08:29;152915.31;;;10.19;100.00
51287;BME280;37364;46.974;18.916;2023-05-12T02:11:04;152925.66;;;10.23;100.00
51287;BME280;37364;46.974;18.916;2023-05-12T02:13:38;152919.19;;;10.20;100.00
51287;BME280;37364;46.974;18.916;2023-05-12T02:16:08;152938.63;;;10.28;100.00
51287;BME280;37364;46.974;18.916;2023-05-12T02:18:39;152930.84;;;10.25;100.00
51287;BME280;37364;46.974;18.916;2023-05-12T02:21:10;152921.81;;;10.21;100.00
51287;BME280;37364;46.974;18.916;2023-05-12T02:23:40;152932.16;;;10.25;100.00
51287;BME280;37364;46.974;18.916;2023-05-12T02:26:11;152936.00;;;10.27;100.00
51287;BME280;37364;46.974;18.916;2023-05-12T02:28:44;152942.50;;;10.29;100.00
51287;BME280;37364;46.974;18.916;2023-05-12T02:31:15;152930.84;;;10.25;100.00
51287;BME280;37364;46.974;18.916;2023-05-12T02:33:45;152947.75;;;10.32;100.00
51287;BME280;37364;46.974;18.916;2023-05-12T02:36:17;152939.91;;;10.28;100.00
51287;BME280;37364;46.974;18.916;2023-05-12T02:38:47;152917.91;;;10.20;100.00
51287;BME280;37364;46.974;18.916;2023-05-12T02:41:17;152903.69;;;10.14;100.00
51287;BME280;37364;46.974;18.916;2023-05-12T02:43:51;152933.44;;;10.26;100.00
51287;BME280;37364;46.974;18.916;2023-05-12T02:46:21;152927.00;;;10.23;100.00
51287;BME280;37364;46.974;18.916;2023-05-12T02:48:52;152949.03;;;10.32;100.00
51287;BME280;37364;46.974;18.916;2023-05-12T02:51:22;152949.03;;;10.32;100.00
51287;BME280;37364;46.974;18.916;2023-05-12T02:53:53;152942.50;;;10.29;100.00
51287;BME280;37364;46.974;18.916;2023-05-12T02:56:23;152939.91;;;10.28;100.00
51287;BME280;37364;46.974;18.916;2023-05-12T02:58:56;152936.00;;;10.27;100.00
51287;BME280;37364;46.974;18.916;2023-05-12T03:01:26;152932.16;;;10.25;100.00
51287;BME280;37364;46.974;18.916;2023-05-12T03:03:56;152934.72;;;10.26;100.00
51287;BME280;37364;46.974;18.916;2023-05-12T03:06:26;152929.56;;;10.24;100.00
51287;BME280;37364;46.974;18.916;2023-05-12T03:08:57;152958.09;;;10.36;100.00
51287;BME280;37364;46.974;18.916;2023-05-12T03:11:27;152951.63;;;10.33;100.00
51287;BME280;37364;46.974;18.916;2023-05-12T03:14:00;152946.47;;;10.31;100.00
51287;BME280;37364;46.974;18.916;2023-05-12T03:16:30;152955.47;;;10.35;100.00
51287;BME280;37364;46.974;18.916;2023-05-12T03:19:00;152932.16;;;10.25;100.00
51287;BME280;37364;46.974;18.916;2023-05-12T03:21:31;152943.84;;;10.30;100.00
51287;BME280;37364;46.974;18.916;2023-05-12T03:24:03;152934.72;;;10.26;100.00
51287;BME280;37364;46.974;18.916;2023-05-12T03:26:33;152924.38;;;10.22;100.00
51287;BME280;37364;46.974;18.916;2023-05-12T03:29:06;152915.31;;;10.19;100.00
51287;BME280;37364;46.974;18.916;2023-05-12T03:31:37;152928.28;;;10.24;100.00
51287;BME280;37364;46.974;18.916;2023-05-12T03:34:10;152924.38;;;10.22;100.00
51287;BME280;37364;46.974;18.916;2023-05-12T03:36:40;152930.84;;;10.25;100.00
51287;BME280;37364;46.974;18.916;2023-05-12T03:39:10;152929.56;;;10.24;100.00
51287;BME280;37364;46.974;18.916;2023-05-12T03:41:40;152938.63;;;10.28;100.00
51287;BME280;37364;46.974;18.916;2023-05-12T03:44:13;152930.84;;;10.25;100.00
51287;BME280;37364;46.974;18.916;2023-05-12T03:46:43;152937.34;;;10.27;100.00
51287;BME280;37364;46.974;18.916;2023-05-12T03:49:14;152945.13;;;10.31;100.00
51287;BME280;37364;46.974;18.916;2023-05-12T03:51:44;152936.00;;;10.27;100.00
51287;BME280;37364;46.974;18.916;2023-05-12T03:54:14;152939.91;;;10.28;100.00
51287;BME280;37364;46.974;18.916;2023-05-12T03:56:46;152934.72;;;10.26;100.00
51287;BME280;37364;46.974;18.916;2023-05-12T03:59:18;152924.38;;;10.22;100.00
51287;BME280;37364;46.974;18.916;2023-05-12T04:01:51;152930.84;;;10.25;100.00
51287;BME280;37364;46.974;18.916;2023-05-12T04:04:23;152921.81;;;10.21;100.00
51287;BME280;37364;46.974;18.916;2023-05-12T04:06:54;152929.56;;;10.24;100.00
51287;BME280;37364;46.974;18.916;2023-05-12T04:09:24;152924.38;;;10.22;100.00
51287;BME280;37364;46.974;18.916;2023-05-12T04:11:56;152927.00;;;10.23;100.00
51287;BME280;37364;46.974;18.916;2023-05-12T04:14:30;152927.00;;;10.23;100.00
51287;BME280;37364;46.974;18.916;2023-05-12T04:17:08;152937.34;;;10.27;100.00
51287;BME280;37364;46.974;18.916;2023-05-12T04:19:39;152936.00;;;10.27;100.00
51287;BME280;37364;46.974;18.916;2023-05-12T04:22:09;152941.22;;;10.29;100.00
51287;BME280;37364;46.974;18.916;2023-05-12T04:24:39;152934.72;;;10.26;100.00
51287;BME280;37364;46.974;18.916;2023-05-12T04:27:09;152928.28;;;10.24;100.00
51287;BME280;37364;46.974;18.916;2023-05-12T04:29:42;152929.56;;;10.24;100.00
51287;BME280;37364;46.974;18.916;2023-05-12T04:32:12;152933.44;;;10.26;100.00
51287;BME280;37364;46.974;18.916;2023-05-12T04:34:44;152941.22;;;10.29;100.00
51287;BME280;37364;46.974;18.916;2023-05-12T04:37:14;152938.63;;;10.28;100.00
51287;BME280;37364;46.974;18.916;2023-05-12T04:39:44;152923.09;;;10.22;100.00
51287;BME280;37364;46.974;18.916;2023-05-12T04:42:17;152937.34;;;10.27;100.00
51287;BME280;37364;46.974;18.916;2023-05-12T04:44:49;152920.47;;;10.21;100.00
51287;BME280;37364;46.974;18.916;2023-05-12T04:47:20;152916.63;;;10.19;100.00
51287;BME280;37364;46.974;18.916;2023-05-12T04:49:50;152920.47;;;10.21;100.00
51287;BME280;37364;46.974;18.916;2023-05-12T04:52:20;152917.91;;;10.20;100.00
51287;BME280;37364;46.974;18.916;2023-05-12T04:54:51;152921.81;;;10.21;100.00
51287;BME280;37364;46.974;18.916;2023-05-12T04:57:21;152910.13;;;10.17;100.00
51287;BME280;37364;46.974;18.916;2023-05-12T04:59:55;152915.31;;;10.19;100.00
51287;BME280;37364;46.974;18.916;2023-05-12T05:02:26;152914.03;;;10.18;100.00
51287;BME280;37364;46.974;18.916;2023-05-12T05:04:57;152903.69;;;10.14;100.00
51287;BME280;37364;46.974;18.916;2023-05-12T05:07:28;152906.25;;;10.15;100.00
51287;BME280;37364;46.974;18.916;2023-05-12T05:09:59;152914.03;;;10.18;100.00
51287;BME280;37364;46.974;18.916;2023-05-12T05:12:30;152927.00;;;10.23;100.00
51287;BME280;37364;46.974;18.916;2023-05-12T05:15:03;152898.50;;;10.12;100.00
51287;BME280;37364;46.974;18.916;2023-05-12T05:17:36;152902.41;;;10.14;100.00
51287;BME280;37364;46.974;18.916;2023-05-12T05:20:08;152898.50;;;10.12;100.00
51287;BME280;37364;46.974;18.916;2023-05-12T05:22:41;152901.06;;;10.13;100.00
51287;BME280;37364;46.974;18.916;2023-05-12T05:25:11;152903.69;;;10.14;100.00
51287;BME280;37364;46.974;18.916;2023-05-12T05:27:42;152904.97;;;10.15;100.00
51287;BME280;37364;46.974;18.916;2023-05-12T05:30:15;152912.75;;;10.18;100.00
51287;BME280;37364;46.974;18.916;2023-05-12T05:32:45;152919.19;;;10.20;100.00
51287;BME280;37364;46.974;18.916;2023-05-12T05:35:16;152898.50;;;10.12;100.00
51287;BME280;37364;46.974;18.916;2023-05-12T05:37:48;152924.38;;;10.22;100.00
51287;BME280;37364;46.974;18.916;2023-05-12T05:40:20;152916.63;;;10.19;100.00
51287;BME280;37364;46.974;18.916;2023-05-12T05:42:50;152916.63;;;10.19;100.00
51287;BME280;37364;46.974;18.916;2023-05-12T05:45:23;152921.81;;;10.21;100.00
51287;BME280;37364;46.974;18.916;2023-05-12T05:47:54;152927.00;;;10.23;100.00
51287;BME280;37364;46.974;18.916;2023-05-12T05:50:25;152933.44;;;10.26;100.00
51287;BME280;37364;46.974;18.916;2023-05-12T05:52:55;152906.25;;;10.15;100.00
51287;BME280;37364;46.974;18.916;2023-05-12T05:55:28;152925.66;;;10.23;100.00
51287;BME280;37364;46.974;18.916;2023-05-12T05:57:58;152915.31;;;10.19;100.00
51287;BME280;37364;46.974;18.916;2023-05-12T06:00:31;152920.47;;;10.21;100.00
51287;BME280;37364;46.974;18.916;2023-05-12T06:03:03;152910.13;;;10.17;100.00
51287;BME280;37364;46.974;18.916;2023-05-12T06:05:33;152911.41;;;10.17;100.00
51287;BME280;37364;46.974;18.916;2023-05-12T06:08:04;152908.84;;;10.16;100.00
51287;BME280;37364;46.974;18.916;2023-05-12T06:10:35;152925.66;;;10.23;100.00
51287;BME280;37364;46.974;18.916;2023-05-12T06:13:05;152932.16;;;10.25;100.00
51287;BME280;37364;46.974;18.916;2023-05-12T06:15:38;152939.91;;;10.28;100.00
51287;BME280;37364;46.974;18.916;2023-05-12T06:18:11;152942.50;;;10.29;100.00
51287;BME280;37364;46.974;18.916;2023-05-12T06:20:42;152937.34;;;10.27;100.00
51287;BME280;37364;46.974;18.916;2023-05-12T06:23:12;152941.22;;;10.29;100.00
51287;BME280;37364;46.974;18.916;2023-05-12T06:25:47;152959.38;;;10.36;100.00
51287;BME280;37364;46.974;18.916;2023-05-12T06:28:17;152960.66;;;10.37;100.00
51287;BME280;37364;46.974;18.916;2023-05-12T06:30:50;152978.78;;;10.44;100.00
51287;BME280;37364;46.974;18.916;2023-05-12T06:33:20;152959.38;;;10.36;100.00
51287;BME280;37364;46.974;18.916;2023-05-12T06:35:50;152950.31;;;10.33;100.00
51287;BME280;37364;46.974;18.916;2023-05-12T06:38:21;152967.16;;;10.39;100.00
51287;BME280;37364;46.974;18.916;2023-05-12T06:40:51;152968.44;;;10.40;100.00
51287;BME280;37364;46.974;18.916;2023-05-12T06:43:21;152973.63;;;10.42;100.00
51287;BME280;37364;46.974;18.916;2023-05-12T06:45:56;152978.78;;;10.44;100.00
51287;BME280;37364;46.974;18.916;2023-05-12T06:48:27;152977.50;;;10.43;100.00
51287;BME280;37364;46.974;18.916;2023-05-12T06:50:57;152963.25;;;10.38;100.00
51287;BME280;37364;46.974;18.916;2023-05-12T06:53:28;152960.66;;;10.37;100.00
51287;BME280;37364;46.974;18.916;2023-05-12T06:55:59;152941.22;;;10.29;100.00
51287;BME280;37364;46.974;18.916;2023-05-12T06:58:30;152943.84;;;10.30;100.00
51287;BME280;37364;46.974;18.916;2023-05-12T07:01:03;152911.41;;;10.17;100.00
51287;BME280;37364;46.974;18.916;2023-05-12T07:03:34;152930.84;;;10.25;100.00
51287;BME280;37364;46.974;18.916;2023-05-12T07:06:05;152949.03;;;10.32;100.00
51287;BME280;37364;46.974;18.916;2023-05-12T07:08:35;152938.63;;;10.28;100.00
51287;BME280;37364;46.974;18.916;2023-05-12T07:11:05;152930.84;;;10.25;100.00
51287;BME280;37364;46.974;18.916;2023-05-12T07:13:35;152937.34;;;10.27;100.00
51287;BME280;37364;46.974;18.916;2023-05-12T07:16:08;152920.47;;;10.21;100.00
51287;BME280;37364;46.974;18.916;2023-05-12T07:18:40;152915.31;;;10.19;100.00
51287;BME280;37364;46.974;18.916;2023-05-12T07:21:11;152917.91;;;10.20;100.00
51287;BME280;37364;46.974;18.916;2023-05-12T07:23:41;152936.00;;;10.27;100.00
51287;BME280;37364;46.974;18.916;2023-05-12T07:26:12;152907.56;;;10.16;100.00
51287;BME280;37364;46.974;18.916;2023-05-12T07:28:43;152921.81;;;10.21;100.00
51287;BME280;37364;46.974;18.916;2023-05-12T07:31:15;152920.47;;;10.21;100.00
51287;BME280;37364;46.974;18.916;2023-05-12T07:33:46;152937.34;;;10.27;100.00
51287;BME280;37364;46.974;18.916;2023-05-12T07:36:16;152919.19;;;10.20;100.00
51287;BME280;37364;46.974;18.916;2023-05-12T07:38:48;152914.03;;;10.18;100.00
51287;BME280;37364;46.974;18.916;2023-05-12T07:41:18;152902.41;;;10.14;100.00
51287;BME280;37364;46.974;18.916;2023-05-12T07:43:48;152907.56;;;10.16;100.00
51287;BME280;37364;46.974;18.916;2023-05-12T07:46:21;152888.16;;;10.08;100.00
51287;BME280;37364;46.974;18.916;2023-05-12T07:48:51;152904.97;;;10.15;100.00
51287;BME280;37364;46.974;18.916;2023-05-12T07:51:21;152899.78;;;10.13;100.00
51287;BME280;37364;46.974;18.916;2023-05-12T07:53:52;152895.88;;;10.11;100.00
51287;BME280;37364;46.974;18.916;2023-05-12T07:56:24;152903.69;;;10.14;100.00
51287;BME280;37364;46.974;18.916;2023-05-12T07:58:54;152894.59;;;10.10;100.00
51287;BME280;37364;46.974;18.916;2023-05-12T08:01:27;152882.97;;;10.06;100.00
51287;BME280;37364;46.974;18.916;2023-05-12T08:03:57;152872.63;;;10.02;100.00
51287;BME280;37364;46.974;18.916;2023-05-12T08:06:27;152914.03;;;10.18;100.00
51287;BME280;37364;46.974;18.916;2023-05-12T08:08:57;152932.16;;;10.25;100.00
51287;BME280;37364;46.974;18.916;2023-05-12T08:11:28;152942.50;;;10.29;100.00
51287;BME280;37364;46.974;18.916;2023-05-12T08:13:58;152934.72;;;10.26;100.00
51287;BME280;37364;46.974;18.916;2023-05-12T08:16:31;152942.50;;;10.29;100.00
51287;BME280;37364;46.974;18.916;2023-05-12T08:19:03;152958.09;;;10.36;100.00
51287;BME280;37364;46.974;18.916;2023-05-12T08:21:34;152945.13;;;10.31;100.00
51287;BME280;37364;46.974;18.916;2023-05-12T08:24:04;152976.22;;;10.43;100.00
51287;BME280;37364;46.974;18.916;2023-05-12T08:26:34;152961.97;;;10.37;100.00
51287;BME280;37364;46.974;18.916;2023-05-12T08:29:04;152972.34;;;10.41;100.00
51287;BME280;37364;46.974;18.916;2023-05-12T08:31:38;152978.78;;;10.44;100.00
51287;BME280;37364;46.974;18.916;2023-05-12T08:34:08;152986.59;;;10.47;100.00
51287;BME280;37364;46.974;18.916;2023-05-12T08:36:39;152990.44;;;10.48;100.00
51287;BME280;37364;46.974;18.916;2023-05-12T08:39:09;152976.22;;;10.43;100.00
51287;BME280;37364;46.974;18.916;2023-05-12T08:41:42;152960.66;;;10.37;100.00
51287;BME280;37364;46.974;18.916;2023-05-12T08:44:14;152967.16;;;10.39;100.00
51287;BME280;37364;46.974;18.916;2023-05-12T08:46:47;152955.47;;;10.35;100.00
51287;BME280;37364;46.974;18.916;2023-05-12T08:49:20;152964.53;;;10.38;100.00
51287;BME280;37364;46.974;18.916;2023-05-12T08:51:52;152963.25;;;10.38;100.00
51287;BME280;37364;46.974;18.916;2023-05-12T08:54:26;152986.59;;;10.47;100.00
51287;BME280;37364;46.974;18.916;2023-05-12T08:56:56;152991.75;;;10.49;100.00
51287;BME280;37364;46.974;18.916;2023-05-12T08:59:30;153022.81;;;10.61;100.00
51287;BME280;37364;46.974;18.916;2023-05-12T09:02:04;153017.63;;;10.59;100.00
51287;BME280;37364;46.974;18.916;2023-05-12T09:04:37;153044.81;;;10.70;100.00
51287;BME280;37364;46.974;18.916;2023-05-12T09:07:07;153057.78;;;10.75;100.00
51287;BME280;37364;46.974;18.916;2023-05-12T09:09:41;153037.06;;;10.67;100.00
51287;BME280;37364;46.974;18.916;2023-05-12T09:12:15;153031.88;;;10.65;100.00
51287;BME280;37364;46.974;18.916;2023-05-12T09:14:55;153043.53;;;10.69;100.00
51287;BME280;37364;46.974;18.916;2023-05-12T09:17:31;153068.13;;;10.79;100.00
51287;BME280;37364;46.974;18.916;2023-05-12T09:20:01;153091.44;;;10.88;100.00
51287;BME280;37364;46.974;18.916;2023-05-12T09:22:41;153141.94;;;11.08;100.00
51287;BME280;37364;46.974;18.916;2023-05-12T09:25:14;153167.84;;;11.19;100.00
51287;BME280;37364;46.974;18.916;2023-05-12T09:27:46;153175.63;;;11.22;100.00
51287;BME280;37364;46.974;18.916;2023-05-12T09:30:28;153187.28;;;11.26;100.00
51287;BME280;37364;46.974;18.916;2023-05-12T09:33:08;153204.16;;;11.33;100.00
51287;BME280;37364;46.974;18.916;2023-05-12T09:35:39;153205.44;;;11.34;100.00
51287;BME280;37364;46.974;18.916;2023-05-12T09:38:11;153200.25;;;11.32;100.00
51287;BME280;37364;46.974;18.916;2023-05-12T09:40:41;153196.34;;;11.30;100.00
51287;BME280;37364;46.974;18.916;2023-05-12T09:43:12;153205.44;;;11.34;100.00
51287;BME280;37364;46.974;18.916;2023-05-12T09:45:42;153219.69;;;11.39;100.00
51287;BME280;37364;46.974;18.916;2023-05-12T09:48:16;153244.31;;;11.49;100.00
51287;BME280;37364;46.974;18.916;2023-05-12T09:50:48;153250.75;;;11.52;100.00
51287;BME280;37364;46.974;18.916;2023-05-12T09:53:19;153220.97;;;11.40;100.00
51287;BME280;37364;46.974;18.916;2023-05-12T09:55:49;153222.25;;;11.40;100.00
51287;BME280;37364;46.974;18.916;2023-05-12T09:58:19;153200.25;;;11.32;100.00
51287;BME280;37364;46.974;18.916;2023-05-12T10:00:51;153188.56;;;11.27;100.00
51287;BME280;37364;46.974;18.916;2023-05-12T10:03:29;153193.78;;;11.29;100.00
51287;BME280;37364;46.974;18.916;2023-05-12T10:05:59;153180.81;;;11.24;100.00
51287;BME280;37364;46.974;18.916;2023-05-12T10:08:42;153154.91;;;11.14;100.00
51287;BME280;37364;46.974;18.916;2023-05-12T10:11:13;153128.97;;;11.03;100.00
51287;BME280;37364;46.974;18.916;2023-05-12T10:13:44;153139.38;;;11.07;100.00
51287;BME280;37364;46.974;18.916;2023-05-12T10:16:15;153134.22;;;11.05;100.00
51287;BME280;37364;46.974;18.916;2023-05-12T10:18:49;153130.31;;;11.04;100.00
51287;BME280;37364;46.974;18.916;2023-05-12T10:21:20;153144.56;;;11.10;100.00
51287;BME280;37364;46.974;18.916;2023-05-12T10:23:51;153122.53;;;11.01;100.00
51287;BME280;37364;46.974;18.916;2023-05-12T10:26:23;153123.81;;;11.01;100.00
51287;BME280;37364;46.974;18.916;2023-05-12T10:28:53;153128.97;;;11.03;100.00
51287;BME280;37364;46.974;18.916;2023-05-12T10:31:24;153116.06;;;10.98;100.00
51287;BME280;37364;46.974;18.916;2023-05-12T10:33:58;153126.41;;;11.02;100.00
51287;BME280;37364;46.974;18.916;2023-05-12T10:36:29;153131.59;;;11.04;100.00
51287;BME280;37364;46.974;18.916;2023-05-12T10:39:03;153149.75;;;11.12;100.00
51287;BME280;37364;46.974;18.916;2023-05-12T10:41:36;153175.63;;;11.22;100.00
51287;BME280;37364;46.974;18.916;2023-05-12T10:44:06;153231.31;;;11.44;100.00
51287;BME280;37364;46.974;18.916;2023-05-12T10:46:37;153241.69;;;11.48;100.00
51287;BME280;37364;46.974;18.916;2023-05-12T10:49:10;153254.66;;;11.53;100.00
51287;BME280;37364;46.974;18.916;2023-05-12T10:51:48;153237.78;;;11.46;100.00
51287;BME280;37364;46.974;18.916;2023-05-12T10:54:22;153270.19;;;11.59;100.00
51287;BME280;37364;46.974;18.916;2023-05-12T10:56:57;153239.13;;;11.47;100.00
51287;BME280;37364;46.974;18.916;2023-05-12T10:59:28;153211.88;;;11.36;100.00
51287;BME280;37364;46.974;18.916;2023-05-12T11:02:00;153200.25;;;11.32;100.00
51287;BME280;37364;46.974;18.916;2023-05-12T11:04:41;153223.59;;;11.41;100.00
51287;BME280;37364;46.974;18.916;2023-05-12T11:07:20;153222.25;;;11.40;100.00
51287;BME280;37364;46.974;18.916;2023-05-12T11:09:54;153180.81;;;11.24;100.00
51287;BME280;37364;46.974;18.916;2023-05-12T11:12:28;153162.66;;;11.17;100.00
51287;BME280;37364;46.974;18.916;2023-05-12T11:15:00;153134.22;;;11.05;100.00
51287;BME280;37364;46.974;18.916;2023-05-12T11:17:30;153109.59;;;10.96;100.00
51287;BME280;37364;46.974;18.916;2023-05-12T11:20:04;153110.88;;;10.96;100.00
51287;BME280;37364;46.974;18.916;2023-05-12T11:22:35;153134.22;;;11.05;100.00
51287;BME280;37364;46.974;18.916;2023-05-12T11:25:09;153123.81;;;11.01;100.00
51287;BME280;37364;46.974;18.916;2023-05-12T11:27:46;153141.94;;;11.08;100.00
51287;BME280;37364;46.974;18.916;2023-05-12T11:30:16;153141.94;;;11.08;100.00
51287;BME280;37364;46.974;18.916;2023-05-12T11:32:47;153152.31;;;11.13;100.00
51287;BME280;37364;46.974;18.916;2023-05-12T11:35:20;153121.25;;;11.00;100.00
51287;BME280;37364;46.974;18.916;2023-05-12T11:37:50;153160.09;;;11.16;100.00
51287;BME280;37364;46.974;18.916;2023-05-12T11:40:21;153116.06;;;10.98;100.00
51287;BME280;37364;46.974;18.916;2023-05-12T11:42:52;153116.06;;;10.98;100.00
51287;BME280;37364;46.974;18.916;2023-05-12T11:45:24;153110.88;;;10.96;100.00
51287;BME280;37364;46.974;18.916;2023-05-12T11:48:05;153092.72;;;10.89;100.00
51287;BME280;37364;46.974;18.916;2023-05-12T11:50:43;153061.66;;;10.77;100.00
51287;BME280;37364;46.974;18.916;2023-05-12T11:53:16;153091.44;;;10.88;100.00
51287;BME280;37364;46.974;18.916;2023-05-12T11:55:47;153077.19;;;10.83;100.00
51287;BME280;37364;46.974;18.916;2023-05-12T11:58:19;153117.34;;;10.99;100.00
51287;BME280;37364;46.974;18.916;2023-05-12T12:00:52;153079.81;;;10.84;100.00
51287;BME280;37364;46.974;18.916;2023-05-12T12:03:23;153087.56;;;10.87;100.00
51287;BME280;37364;46.974;18.916;2023-05-12T12:06:01;153030.59;;;10.64;100.00
51287;BME280;37364;46.974;18.916;2023-05-12T12:08:35;153039.63;;;10.68;100.00
51287;BME280;37364;46.974;18.916;2023-05-12T12:11:07;153051.31;;;10.73;100.00
51287;BME280;37364;46.974;18.916;2023-05-12T12:13:37;153017.63;;;10.59;100.00
51287;BME280;37364;46.974;18.916;2023-05-12T12:16:07;153033.16;;;10.65;100.00
51287;BME280;37364;46.974;18.916;2023-05-12T12:18:40;153007.28;;;10.55;100.00
51287;BME280;37364;46.974;18.916;2023-05-12T12:21:13;153031.88;;;10.65;100.00
51287;BME280;37364;46.974;18.916;2023-05-12T12:23:44;153002.09;;;10.53;100.00
51287;BME280;37364;46.974;18.916;2023-05-12T12:26:18;152985.25;;;10.46;100.00
51287;BME280;37364;46.974;18.916;2023-05-12T12:28:49;153003.38;;;10.54;100.00
51287;BME280;37364;46.974;18.916;2023-05-12T12:31:19;152952.91;;;10.34;100.00
51287;BME280;37364;46.974;18.916;2023-05-12T12:33:49;152971.06;;;10.41;100.00
51287;BME280;37364;46.974;18.916;2023-05-12T12:36:24;152978.78;;;10.44;100.00
51287;BME280;37364;46.974;18.916;2023-05-12T12:38:54;152991.75;;;10.49;100.00
51287;BME280;37364;46.974;18.916;2023-05-12T12:41:30;153008.56;;;10.56;100.00
51287;BME280;37364;46.974;18.916;2023-05-12T12:44:01;153004.66;;;10.54;100.00
51287;BME280;37364;46.974;18.916;2023-05-12T12:46:31;152967.16;;;10.39;100.00
51287;BME280;37364;46.974;18.916;2023-05-12T12:49:01;152980.06;;;10.44;100.00
51287;BME280;37364;46.974;18.916;2023-05-12T12:51:34;152946.47;;;10.31;100.00
51287;BME280;37364;46.974;18.916;2023-05-12T12:54:13;152938.63;;;10.28;100.00